Port Imperial New Jersey — WBR3133 — position and weather

sailwx.info

Track history (hours):
 
Tides and Currents Weather Stations Pressure Air Temp Water Temp Dewpoint Dewpoint Depression Visibility Wind Speed Wind Dir Waves Ship Positions

Port Imperial New Jersey

Owner: PORT IMPERIAL FERRY CORP, WEEHAWKEN, NJ. More information available from US FCC via Universal Licensing System and Coast Guard Vessel Documentation Center.

Last reported at 2016-May-05 00:11 UTC. Time now 2016-May-05 10:22 UTC.
Position N 40°46' W 074°01'.

Length 31 m.

Type: Passenger vessel. MMSI: 366990550.

Date/timePositionNaut miles runAvg speedWind from/ knotsBaromVisibWave heightAir tempDewpointWater temp
2016-May-05 00:11N 40°46' W 074°01'3 5.3
2016-May-04 23:33N 40°43' W 074°01'1 0.7
2016-May-04 22:34N 40°44' W 074°01'0 0.1
2016-May-04 21:34N 40°44' W 074°01'0 0.1
2016-May-04 20:33N 40°44' W 074°01'0 0.0
2016-May-04 19:33N 40°44' W 074°01'2 1.1
2016-May-04 17:33N 40°46' W 074°00'0 0.0
2016-May-04 16:33N 40°46' W 074°00'0 0.0
2016-May-04 15:33N 40°46' W 074°00'1 0.7
2016-May-04 14:34N 40°46' W 074°01'3 2.7
2016-May-04 13:33N 40°44' W 074°01'0 0.1
2016-May-04 12:33N 40°44' W 074°01'0 0.1
2016-May-04 11:33N 40°44' W 074°01'0 0.0
2016-May-04 10:33N 40°44' W 074°01'3 3.1
2016-May-04 09:33N 40°47' W 074°01'0 0.0
2016-May-04 00:04N 40°47' W 074°01'1 2.2
2016-May-03 23:33N 40°45' W 074°01'0 0.0
2016-May-03 22:34N 40°45' W 074°01'0 0.2
2016-May-03 21:33N 40°45' W 074°01'0 0.1
2016-May-03 20:33N 40°45' W 074°01'0 0.3
2016-May-03 19:33N 40°45' W 074°01'0 0.1
2016-May-03 18:34N 40°45' W 074°01'1 0.7
2016-May-03 17:26N 40°46' W 074°01'1 1.4
2016-May-03 16:33N 40°45' W 074°01'1 0.6
2016-May-03 14:33N 40°46' W 074°01'1 0.9
2016-May-03 13:33N 40°45' W 074°01'0 0.3
2016-May-03 12:34N 40°46' W 074°00'0 0.1
2016-May-03 11:27N 40°46' W 074°00'0 0.0
2016-May-03 10:33N 40°46' W 074°00'1 0.1
2016-May-03 00:10N 40°46' W 074°01'1 1.4
2016-May-02 23:33N 40°45' W 074°01'0 0.2
2016-May-02 22:34N 40°46' W 074°01'1 0.6
2016-May-02 21:34N 40°45' W 074°01'1 0.5
2016-May-02 20:33N 40°45' W 074°01'0 0.3
2016-May-02 19:31N 40°46' W 074°00'1 0.5
2016-May-02 18:33N 40°45' W 074°01'1 0.3
2016-May-02 14:19N 40°46' W 074°00'1 1.3
2016-May-02 13:33N 40°45' W 074°01'0 0.2
2016-May-02 12:34N 40°45' W 074°01'0 0.5
2016-May-02 11:32N 40°46' W 074°00'0 0.1
2016-May-02 10:25N 40°46' W 074°00'0 0.0
2016-May-01 14:12N 40°46' W 074°01'3 5.1
2016-May-01 13:33N 40°43' W 074°01'0 0.1
2016-May-01 12:33N 40°43' W 074°01'0 0.2
2016-May-01 11:33N 40°43' W 074°01'1 0.6
2016-May-01 10:30N 40°43' W 074°02'2 2.1
2016-May-01 09:33N 40°45' W 074°01'2 0.1
2016-Apr-30 18:33N 40°46' W 074°00'0 0.3
2016-Apr-30 17:33N 40°46' W 074°00'0 0.3
2016-Apr-30 16:25N 40°46' W 074°00'0 0.1
2016-Apr-30 15:18N 40°46' W 074°00'1 0.1
2016-Apr-30 00:13N 40°46' W 074°01'1 1.3
2016-Apr-29 23:33N 40°45' W 074°01'0 0.1
2016-Apr-29 22:33N 40°45' W 074°01'0 0.2
2016-Apr-29 21:33N 40°46' W 074°01'0 0.1
2016-Apr-29 20:33N 40°46' W 074°01'0 0.1
2016-Apr-29 19:33N 40°45' W 074°01'0 0.0
2016-Apr-29 18:33N 40°45' W 074°01'1 0.9
2016-Apr-29 17:20N 40°47' W 074°01'1 0.7
2016-Apr-29 16:33N 40°46' W 074°01'0 0.1
2016-Apr-29 14:33N 40°46' W 074°01'0 0.2
2016-Apr-29 13:32N 40°46' W 074°00'0 0.0
2016-Apr-29 12:29N 40°46' W 074°00'0 0.1
2016-Apr-29 11:28N 40°46' W 074°00'1 0.7
2016-Apr-29 10:33N 40°45' W 074°01'0 0.0
2016-Apr-28 23:33N 40°45' W 074°01'0 0.2
2016-Apr-28 22:33N 40°45' W 074°01'0 0.1
2016-Apr-28 21:33N 40°45' W 074°01'0 0.2
2016-Apr-28 20:34N 40°45' W 074°01'1 0.5
2016-Apr-28 19:30N 40°46' W 074°00'0 0.5
2016-Apr-28 18:33N 40°45' W 074°01'1 0.8
2016-Apr-28 17:32N 40°46' W 074°01'1 0.6
2016-Apr-28 16:17N 40°46' W 074°00'0 0.7
2016-Apr-28 15:33N 40°45' W 074°01'1 0.6
2016-Apr-28 14:33N 40°46' W 074°00'0 0.2
2016-Apr-28 13:33N 40°46' W 074°01'0 0.1
2016-Apr-28 12:34N 40°46' W 074°01'0 0.3
2016-Apr-28 11:31N 40°46' W 074°00'1 0.1
2016-Apr-28 00:13N 40°46' W 074°01'1 1.2
2016-Apr-27 23:34N 40°45' W 074°01'0 0.2
2016-Apr-27 22:33N 40°45' W 074°01'0 0.2
2016-Apr-27 21:33N 40°45' W 074°01'0 0.4
2016-Apr-27 20:33N 40°45' W 074°01'0 0.4
2016-Apr-27 19:33N 40°46' W 074°00'1 0.5
2016-Apr-27 18:33N 40°45' W 074°01'1 0.3
2016-Apr-27 16:33N 40°46' W 074°01'0 0.1
2016-Apr-27 14:33N 40°46' W 074°00'2 2.1
2016-Apr-27 13:34N 40°44' W 074°01'0 0.2
2016-Apr-27 12:34N 40°44' W 074°01'0 0.1
2016-Apr-27 11:33N 40°43' W 074°01'0 0.1
2016-Apr-27 10:33N 40°44' W 074°01'3 0.2
2016-Apr-26 23:17N 40°46' W 074°01'3 3.8
2016-Apr-26 22:33N 40°44' W 074°01'1 0.6
2016-Apr-26 21:33N 40°43' W 074°01'0 0.2
2016-Apr-26 20:33N 40°43' W 074°01'0 0.2
2016-Apr-26 19:33N 40°43' W 074°01'3 3.0
2016-Apr-26 18:33N 40°46' W 074°01'0 0.0
2016-Apr-26 14:31N 40°46' W 074°01'2 2.5
2016-Apr-26 13:33N 40°44' W 074°01'0 0.1
2016-Apr-26 12:33N 40°44' W 074°02'0 0.5
2016-Apr-26 11:33N 40°44' W 074°01'0 0.4
2016-Apr-26 10:33N 40°44' W 074°01'2 0.2
2016-Apr-25 23:13N 40°46' W 074°01'3 4.4
2016-Apr-25 22:33N 40°43' W 074°01'0 0.1
2016-Apr-25 21:34N 40°43' W 074°01'0 0.2
2016-Apr-25 20:34N 40°44' W 074°01'0 0.4
2016-Apr-25 19:34N 40°43' W 074°01'3 3.2
2016-Apr-25 18:33N 40°46' W 074°01'0 0.0
2016-Apr-25 14:29N 40°46' W 074°01'1 1.0
2016-Apr-25 13:33N 40°45' W 074°01'1 0.7
2016-Apr-25 12:32N 40°46' W 074°00'1 0.8
2016-Apr-25 11:33N 40°45' W 074°01'1 1.1
2016-Apr-25 10:30N 40°47' W 074°00'2 0.2
2016-Apr-25 00:33N 40°45' W 074°01'  
Track history (hours):
 
Tides and Currents Weather Stations Pressure Air Temp Water Temp Dewpoint Dewpoint Depression Visibility Wind Speed Wind Dir Waves Ship Positions

Port Imperial New Jersey

Owner: PORT IMPERIAL FERRY CORP, WEEHAWKEN, NJ. More information available from US FCC via Universal Licensing System and Coast Guard Vessel Documentation Center.

Last reported at 2016-May-05 00:11 UTC. Time now 2016-May-05 10:22 UTC.
Position N 40°46' W 074°01'.

Length 31 m.

Type: Passenger vessel. MMSI: 366990550.

Date/timePositionNaut miles runAvg speedWind from/ knotsBaromVisibWave heightAir tempDewpointWater temp
2016-May-05 00:11N 40°46' W 074°01'3 5.3
2016-May-04 23:33N 40°43' W 074°01'1 0.7
2016-May-04 22:34N 40°44' W 074°01'0 0.1
2016-May-04 21:34N 40°44' W 074°01'0 0.1
2016-May-04 20:33N 40°44' W 074°01'0 0.0
2016-May-04 19:33N 40°44' W 074°01'2 1.1
2016-May-04 17:33N 40°46' W 074°00'0 0.0
2016-May-04 16:33N 40°46' W 074°00'0 0.0
2016-May-04 15:33N 40°46' W 074°00'1 0.7
2016-May-04 14:34N 40°46' W 074°01'3 2.7
2016-May-04 13:33N 40°44' W 074°01'0 0.1
2016-May-04 12:33N 40°44' W 074°01'0 0.1
2016-May-04 11:33N 40°44' W 074°01'0 0.0
2016-May-04 10:33N 40°44' W 074°01'3 3.1
2016-May-04 09:33N 40°47' W 074°01'0 0.0
2016-May-04 00:04N 40°47' W 074°01'1 2.2
2016-May-03 23:33N 40°45' W 074°01'0 0.0
2016-May-03 22:34N 40°45' W 074°01'0 0.2
2016-May-03 21:33N 40°45' W 074°01'0 0.1
2016-May-03 20:33N 40°45' W 074°01'0 0.3
2016-May-03 19:33N 40°45' W 074°01'0 0.1
2016-May-03 18:34N 40°45' W 074°01'1 0.7
2016-May-03 17:26N 40°46' W 074°01'1 1.4
2016-May-03 16:33N 40°45' W 074°01'1 0.6
2016-May-03 14:33N 40°46' W 074°01'1 0.9
2016-May-03 13:33N 40°45' W 074°01'0 0.3
2016-May-03 12:34N 40°46' W 074°00'0 0.1
2016-May-03 11:27N 40°46' W 074°00'0 0.0
2016-May-03 10:33N 40°46' W 074°00'1 0.1
2016-May-03 00:10N 40°46' W 074°01'1 1.4
2016-May-02 23:33N 40°45' W 074°01'0 0.2
2016-May-02 22:34N 40°46' W 074°01'1 0.6
2016-May-02 21:34N 40°45' W 074°01'1 0.5
2016-May-02 20:33N 40°45' W 074°01'0 0.3
2016-May-02 19:31N 40°46' W 074°00'1 0.5
2016-May-02 18:33N 40°45' W 074°01'1 0.3
2016-May-02 14:19N 40°46' W 074°00'1 1.3
2016-May-02 13:33N 40°45' W 074°01'0 0.2
2016-May-02 12:34N 40°45' W 074°01'0 0.5
2016-May-02 11:32N 40°46' W 074°00'0 0.1
2016-May-02 10:25N 40°46' W 074°00'0 0.0
2016-May-01 14:12N 40°46' W 074°01'3 5.1
2016-May-01 13:33N 40°43' W 074°01'0 0.1
2016-May-01 12:33N 40°43' W 074°01'0 0.2
2016-May-01 11:33N 40°43' W 074°01'1 0.6
2016-May-01 10:30N 40°43' W 074°02'2 2.1
2016-May-01 09:33N 40°45' W 074°01'2 0.1
2016-Apr-30 18:33N 40°46' W 074°00'0 0.3
2016-Apr-30 17:33N 40°46' W 074°00'0 0.3
2016-Apr-30 16:25N 40°46' W 074°00'0 0.1
2016-Apr-30 15:18N 40°46' W 074°00'1 0.1
2016-Apr-30 00:13N 40°46' W 074°01'1 1.3
2016-Apr-29 23:33N 40°45' W 074°01'0 0.1
2016-Apr-29 22:33N 40°45' W 074°01'0 0.2
2016-Apr-29 21:33N 40°46' W 074°01'0 0.1
2016-Apr-29 20:33N 40°46' W 074°01'0 0.1
2016-Apr-29 19:33N 40°45' W 074°01'0 0.0
2016-Apr-29 18:33N 40°45' W 074°01'1 0.9
2016-Apr-29 17:20N 40°47' W 074°01'1 0.7
2016-Apr-29 16:33N 40°46' W 074°01'0 0.1
2016-Apr-29 14:33N 40°46' W 074°01'0 0.2
2016-Apr-29 13:32N 40°46' W 074°00'0 0.0
2016-Apr-29 12:29N 40°46' W 074°00'0 0.1
2016-Apr-29 11:28N 40°46' W 074°00'1 0.7
2016-Apr-29 10:33N 40°45' W 074°01'0 0.0
2016-Apr-28 23:33N 40°45' W 074°01'0 0.2
2016-Apr-28 22:33N 40°45' W 074°01'0 0.1
2016-Apr-28 21:33N 40°45' W 074°01'0 0.2
2016-Apr-28 20:34N 40°45' W 074°01'1 0.5
2016-Apr-28 19:30N 40°46' W 074°00'0 0.5
2016-Apr-28 18:33N 40°45' W 074°01'1 0.8
2016-Apr-28 17:32N 40°46' W 074°01'1 0.6
2016-Apr-28 16:17N 40°46' W 074°00'0 0.7
2016-Apr-28 15:33N 40°45' W 074°01'1 0.6
2016-Apr-28 14:33N 40°46' W 074°00'0 0.2
2016-Apr-28 13:33N 40°46' W 074°01'0 0.1
2016-Apr-28 12:34N 40°46' W 074°01'0 0.3
2016-Apr-28 11:31N 40°46' W 074°00'1 0.1
2016-Apr-28 00:13N 40°46' W 074°01'1 1.2
2016-Apr-27 23:34N 40°45' W 074°01'0 0.2
2016-Apr-27 22:33N 40°45' W 074°01'0 0.2
2016-Apr-27 21:33N 40°45' W 074°01'0 0.4
2016-Apr-27 20:33N 40°45' W 074°01'0 0.4
2016-Apr-27 19:33N 40°46' W 074°00'1 0.5
2016-Apr-27 18:33N 40°45' W 074°01'1 0.3
2016-Apr-27 16:33N 40°46' W 074°01'0 0.1
2016-Apr-27 14:33N 40°46' W 074°00'2 2.1
2016-Apr-27 13:34N 40°44' W 074°01'0 0.2
2016-Apr-27 12:34N 40°44' W 074°01'0 0.1
2016-Apr-27 11:33N 40°43' W 074°01'0 0.1
2016-Apr-27 10:33N 40°44' W 074°01'3 0.2
2016-Apr-26 23:17N 40°46' W 074°01'3 3.8
2016-Apr-26 22:33N 40°44' W 074°01'1 0.6
2016-Apr-26 21:33N 40°43' W 074°01'0 0.2
2016-Apr-26 20:33N 40°43' W 074°01'0 0.2
2016-Apr-26 19:33N 40°43' W 074°01'3 3.0
2016-Apr-26 18:33N 40°46' W 074°01'0 0.0
2016-Apr-26 14:31N 40°46' W 074°01'2 2.5
2016-Apr-26 13:33N 40°44' W 074°01'0 0.1
2016-Apr-26 12:33N 40°44' W 074°02'0 0.5
2016-Apr-26 11:33N 40°44' W 074°01'0 0.4
2016-Apr-26 10:33N 40°44' W 074°01'2 0.2
2016-Apr-25 23:13N 40°46' W 074°01'3 4.4
2016-Apr-25 22:33N 40°43' W 074°01'0 0.1
2016-Apr-25 21:34N 40°43' W 074°01'0 0.2
2016-Apr-25 20:34N 40°44' W 074°01'0 0.4
2016-Apr-25 19:34N 40°43' W 074°01'3 3.2
2016-Apr-25 18:33N 40°46' W 074°01'0 0.0
2016-Apr-25 14:29N 40°46' W 074°01'1 1.0
2016-Apr-25 13:33N 40°45' W 074°01'1 0.7
2016-Apr-25 12:32N 40°46' W 074°00'1 0.8
2016-Apr-25 11:33N 40°45' W 074°01'1 1.1
2016-Apr-25 10:30N 40°47' W 074°00'2 0.2
2016-Apr-25 00:33N 40°45' W 074°01'  

Dump ship's entire track history